createdAt,value
2017-06-30T00:01:19.588Z,71.10
2017-06-30T00:03:47.946Z,71.40
2017-06-30T00:06:15.503Z,71.40
2017-06-30T00:08:43.389Z,71.70
2017-06-30T00:11:11.730Z,73.00
2017-06-30T00:13:39.311Z,72.10
2017-06-30T00:16:06.887Z,73.30
2017-06-30T00:18:35.224Z,72.70
2017-06-30T00:21:02.815Z,72.70
2017-06-30T00:23:30.376Z,72.70
2017-06-30T00:25:58.331Z,72.70
2017-06-30T00:28:25.902Z,73.10
2017-06-30T00:30:54.234Z,74.30
2017-06-30T00:33:21.824Z,73.30
2017-06-30T00:35:49.395Z,73.40
2017-06-30T00:38:16.985Z,73.20
2017-06-30T00:40:44.567Z,73.10
2017-06-30T00:43:12.464Z,73.50
2017-06-30T00:45:40.047Z,73.60
2017-06-30T00:48:08.400Z,73.40
2017-06-30T00:50:35.994Z,73.40
2017-06-30T00:53:04.335Z,73.30
2017-06-30T00:55:32.182Z,73.20
2017-06-30T00:57:59.765Z,73.40
2017-06-30T01:00:27.348Z,73.50
2017-06-30T01:02:56.622Z,73.50
2017-06-30T01:05:24.192Z,73.50
2017-06-30T01:07:51.764Z,73.50
2017-06-30T01:10:20.089Z,73.40
2017-06-30T01:12:47.965Z,73.40
2017-06-30T01:15:15.529Z,73.10
2017-06-30T01:17:43.095Z,72.70
2017-06-30T01:20:10.657Z,72.60
2017-06-30T01:22:38.222Z,72.70
2017-06-30T01:25:05.808Z,72.30
2017-06-30T01:27:34.152Z,71.80
2017-06-30T01:30:02.032Z,71.80
2017-06-30T01:32:29.609Z,71.10
2017-06-30T01:34:57.936Z,71.20
2017-06-30T01:37:25.528Z,71.10
2017-06-30T01:39:53.110Z,70.50
2017-06-30T01:42:20.693Z,70.20
2017-06-30T01:44:48.272Z,69.70
2017-06-30T01:47:16.158Z,70.60
2017-06-30T01:49:43.742Z,69.50
2017-06-30T01:52:12.081Z,69.70
2017-06-30T01:54:39.648Z,69.60
2017-06-30T01:57:07.217Z,69.00
2017-06-30T01:59:34.806Z,69.30
2017-06-30T02:02:03.145Z,68.50
2017-06-30T02:04:31.047Z,68.50
2017-06-30T02:06:59.383Z,67.50
2017-06-30T02:09:26.936Z,67.50
2017-06-30T02:11:54.500Z,67.50
2017-06-30T02:14:22.082Z,67.00
2017-06-30T02:16:50.035Z,66.80
2017-06-30T02:19:17.609Z,66.50
2017-06-30T02:21:45.949Z,66.50
2017-06-30T02:24:13.529Z,66.40
2017-06-30T02:26:41.102Z,66.10
2017-06-30T02:29:09.048Z,66.10
2017-06-30T02:31:36.620Z,66.00
2017-06-30T02:34:04.187Z,66.30
2017-06-30T02:36:31.791Z,65.70
2017-06-30T02:38:59.365Z,65.90
2017-06-30T02:41:27.252Z,65.60
2017-06-30T02:43:54.819Z,65.60
2017-06-30T02:46:22.397Z,65.40
2017-06-30T02:48:49.964Z,65.70
2017-06-30T02:51:18.284Z,65.40
2017-06-30T02:53:46.165Z,65.40
2017-06-30T02:56:13.732Z,65.20
2017-06-30T02:58:41.311Z,65.60
2017-06-30T03:01:08.888Z,65.80
2017-06-30T03:03:37.223Z,65.70
2017-06-30T03:06:05.070Z,65.60
2017-06-30T03:08:32.632Z,65.90
2017-06-30T03:11:00.212Z,65.80
2017-06-30T03:13:27.790Z,65.20
2017-06-30T03:15:56.115Z,65.30
2017-06-30T03:18:23.998Z,65.30
2017-06-30T03:20:51.573Z,65.90
2017-06-30T03:23:19.138Z,65.20
2017-06-30T03:25:46.717Z,64.90
2017-06-30T03:28:15.145Z,65.80
2017-06-30T03:30:43.026Z,65.20
2017-06-30T03:33:10.595Z,66.20
2017-06-30T03:35:38.152Z,65.70
2017-06-30T03:38:06.491Z,65.30
2017-06-30T03:40:34.036Z,65.30
2017-06-30T03:43:01.994Z,65.00
2017-06-30T03:45:30.319Z,65.30
2017-06-30T03:47:57.892Z,65.20
2017-06-30T03:50:25.487Z,65.50
2017-06-30T03:52:53.811Z,65.00
2017-06-30T03:55:21.407Z,65.00
2017-06-30T03:57:49.745Z,65.00
2017-06-30T04:00:17.311Z,64.80
2017-06-30T04:02:44.907Z,64.60
2017-06-30T04:05:13.233Z,63.80
2017-06-30T04:07:40.795Z,63.70
2017-06-30T04:10:08.363Z,63.80
2017-06-30T04:12:35.924Z,63.70
2017-06-30T04:15:03.752Z,63.40
2017-06-30T04:17:31.329Z,63.60
2017-06-30T04:19:58.911Z,63.50
2017-06-30T04:22:26.482Z,63.10
2017-06-30T04:24:54.072Z,62.70
2017-06-30T04:27:21.985Z,62.40
2017-06-30T04:29:49.546Z,62.40
2017-06-30T04:32:17.124Z,62.30
2017-06-30T04:34:44.713Z,62.50
2017-06-30T04:37:13.047Z,61.90
2017-06-30T04:39:40.923Z,61.80
2017-06-30T04:42:08.466Z,61.40
2017-06-30T04:44:36.044Z,61.90
2017-06-30T04:47:03.604Z,61.70
2017-06-30T04:49:31.166Z,61.70
2017-06-30T04:51:59.023Z,61.50
2017-06-30T04:54:26.584Z,62.00
2017-06-30T04:56:54.159Z,62.00
2017-06-30T04:59:21.735Z,62.00
2017-06-30T05:01:49.301Z,61.90
2017-06-30T05:04:16.869Z,61.80
2017-06-30T05:06:44.463Z,61.20
2017-06-30T05:09:12.352Z,61.20
2017-06-30T05:11:39.928Z,61.70
2017-06-30T05:14:09.263Z,61.20
2017-06-30T05:16:36.852Z,61.20
2017-06-30T05:19:04.421Z,61.10
2017-06-30T05:21:32.003Z,61.00
2017-06-30T05:24:00.321Z,60.60
2017-06-30T05:26:28.203Z,60.50
2017-06-30T05:28:55.788Z,60.80
2017-06-30T05:31:23.354Z,60.80
2017-06-30T05:33:50.946Z,61.10
2017-06-30T05:36:18.520Z,60.90
2017-06-30T05:38:46.096Z,60.90
2017-06-30T05:41:13.663Z,60.80
2017-06-30T05:43:42.265Z,60.90
2017-06-30T05:46:09.816Z,61.60
2017-06-30T05:48:37.376Z,60.40
2017-06-30T05:51:04.978Z,60.90
2017-06-30T05:53:32.537Z,60.50
2017-06-30T05:56:00.125Z,60.50
2017-06-30T05:58:27.724Z,60.50
2017-06-30T06:00:55.633Z,60.80
2017-06-30T06:03:23.207Z,60.30
2017-06-30T06:05:50.782Z,60.10
2017-06-30T06:08:19.112Z,60.10
2017-06-30T06:10:46.670Z,60.00
2017-06-30T06:13:14.236Z,59.70
2017-06-30T06:15:41.809Z,59.80
2017-06-30T06:18:09.647Z,59.10
2017-06-30T06:20:37.210Z,59.10
2017-06-30T06:23:04.795Z,59.20
2017-06-30T06:25:32.382Z,58.90
2017-06-30T06:28:00.717Z,59.10
2017-06-30T06:30:28.282Z,59.10
2017-06-30T06:32:55.895Z,58.90
2017-06-30T06:35:23.815Z,58.80
2017-06-30T06:37:51.425Z,57.50
2017-06-30T06:40:19.049Z,57.70
2017-06-30T06:42:47.414Z,57.80
2017-06-30T06:45:14.985Z,58.10
2017-06-30T06:47:43.333Z,58.40
2017-06-30T06:50:10.892Z,57.90
2017-06-30T06:52:38.761Z,58.00
2017-06-30T06:55:06.336Z,57.00
2017-06-30T06:57:33.918Z,56.10
2017-06-30T07:00:01.497Z,56.80
2017-06-30T07:02:29.058Z,56.10
2017-06-30T07:04:56.662Z,56.10
2017-06-30T07:07:24.247Z,56.00
2017-06-30T07:09:52.902Z,56.20
2017-06-30T07:12:20.496Z,56.10
2017-06-30T07:14:48.807Z,56.10
2017-06-30T07:17:16.366Z,56.10
2017-06-30T07:19:43.930Z,55.70
2017-06-30T07:22:11.501Z,55.00
2017-06-30T07:24:39.079Z,55.10
2017-06-30T07:27:06.941Z,55.40
2017-06-30T07:29:34.519Z,54.20
2017-06-30T07:32:02.076Z,54.50
2017-06-30T07:34:30.413Z,54.20
2017-06-30T07:36:57.999Z,54.20
2017-06-30T07:39:25.582Z,53.30
2017-06-30T07:41:53.931Z,54.30
2017-06-30T07:44:21.797Z,54.30
2017-06-30T07:46:49.363Z,54.50
2017-06-30T07:49:16.937Z,54.00
2017-06-30T07:51:45.283Z,53.20
2017-06-30T07:54:12.855Z,53.20
2017-06-30T07:56:40.423Z,52.20
2017-06-30T07:59:07.979Z,51.80
2017-06-30T08:01:35.862Z,51.10
2017-06-30T08:04:03.436Z,51.00
2017-06-30T08:06:30.997Z,50.80
2017-06-30T08:11:35.401Z,51.30
2017-06-30T08:14:03.362Z,51.80
2017-06-30T08:16:30.928Z,51.80
2017-06-30T08:18:58.499Z,52.80
2017-06-30T08:21:26.834Z,51.70
2017-06-30T08:23:54.396Z,51.70
2017-06-30T08:26:21.989Z,51.70
2017-06-30T08:28:50.329Z,50.20
2017-06-30T08:31:18.198Z,50.20
2017-06-30T08:33:45.778Z,49.40
2017-06-30T08:36:13.367Z,50.00
2017-06-30T08:38:40.941Z,48.70
2017-06-30T08:41:08.515Z,49.10
2017-06-30T08:43:36.094Z,48.70
2017-06-30T08:46:03.667Z,47.10
2017-06-30T08:48:31.515Z,48.00
2017-06-30T08:50:59.085Z,47.00
2017-06-30T08:53:26.655Z,46.00
2017-06-30T08:55:54.266Z,46.00
2017-06-30T08:58:21.833Z,46.90
2017-06-30T09:00:49.414Z,46.70
2017-06-30T09:03:16.966Z,46.50
2017-06-30T09:05:44.525Z,47.00
2017-06-30T09:08:12.108Z,46.50
2017-06-30T09:10:39.672Z,46.80
2017-06-30T09:13:07.248Z,46.70
2017-06-30T09:15:34.858Z,45.90
2017-06-30T09:18:02.723Z,45.90
2017-06-30T09:20:30.314Z,45.90
2017-06-30T09:22:58.654Z,44.30
2017-06-30T09:25:26.263Z,44.30
2017-06-30T09:27:53.861Z,43.90
2017-06-30T09:30:21.435Z,42.30
2017-06-30T09:32:49.010Z,42.60
2017-06-30T09:35:16.863Z,43.40
2017-06-30T09:37:44.447Z,44.10
2017-06-30T09:40:12.019Z,42.10
2017-06-30T09:42:40.369Z,41.90
2017-06-30T09:45:07.931Z,41.90
2017-06-30T09:47:35.518Z,42.40
2017-06-30T09:50:03.873Z,40.50
2017-06-30T09:52:31.718Z,40.50
2017-06-30T09:54:59.280Z,41.00
2017-06-30T09:57:26.852Z,41.40
2017-06-30T09:59:54.446Z,41.30
2017-06-30T10:02:22.757Z,41.50
2017-06-30T10:04:50.582Z,41.40
2017-06-30T10:07:18.901Z,41.80
2017-06-30T10:09:46.460Z,41.80
2017-06-30T10:12:14.378Z,41.20
2017-06-30T10:14:42.721Z,41.20
2017-06-30T10:17:10.588Z,41.10
2017-06-30T10:19:38.135Z,41.60
2017-06-30T10:22:05.691Z,41.00
2017-06-30T10:24:33.262Z,40.60
2017-06-30T10:27:00.824Z,39.60
2017-06-30T10:29:28.458Z,39.60
2017-06-30T10:31:56.025Z,40.10
2017-06-30T10:34:23.907Z,40.30
2017-06-30T10:36:51.468Z,40.00
2017-06-30T10:39:19.034Z,40.40
2017-06-30T10:41:46.614Z,39.50
2017-06-30T10:44:14.946Z,39.30
2017-06-30T10:46:42.531Z,39.30
2017-06-30T10:49:10.106Z,39.30
2017-06-30T10:51:37.947Z,38.50
2017-06-30T10:54:05.531Z,38.80
2017-06-30T10:56:33.086Z,40.10
2017-06-30T10:59:00.684Z,39.40
2017-06-30T11:01:28.272Z,39.70
2017-06-30T11:03:55.847Z,40.00
2017-06-30T11:06:23.415Z,39.70
2017-06-30T11:08:51.371Z,38.30
2017-06-30T11:11:18.935Z,38.30
2017-06-30T11:13:46.483Z,38.30
2017-06-30T11:16:14.090Z,38.90
2017-06-30T11:18:41.656Z,38.10
2017-06-30T11:21:09.252Z,37.80
2017-06-30T11:23:36.850Z,37.30
2017-06-30T11:26:05.503Z,37.10
2017-06-30T11:28:33.063Z,36.30
2017-06-30T11:31:00.615Z,37.30
2017-06-30T11:33:28.177Z,37.90
2017-06-30T11:35:55.751Z,38.50
2017-06-30T11:38:23.620Z,38.90
2017-06-30T11:40:51.192Z,38.70
2017-06-30T11:43:19.549Z,38.30
2017-06-30T11:45:47.121Z,38.50
2017-06-30T11:48:14.685Z,37.50
2017-06-30T11:50:42.712Z,37.60
2017-06-30T11:53:10.264Z,37.70
2017-06-30T11:55:37.861Z,37.10
2017-06-30T11:58:05.431Z,36.40
2017-06-30T12:00:33.012Z,37.50
2017-06-30T12:03:00.593Z,37.90
2017-06-30T12:05:28.161Z,36.80
2017-06-30T12:07:57.643Z,37.20
2017-06-30T12:10:25.206Z,36.80
2017-06-30T12:12:52.765Z,35.20
2017-06-30T12:15:20.336Z,35.50
2017-06-30T12:17:47.901Z,35.90
2017-06-30T12:20:15.475Z,35.00
2017-06-30T12:22:43.038Z,36.00
2017-06-30T12:25:10.893Z,34.90
2017-06-30T12:27:38.486Z,35.80
2017-06-30T12:30:06.065Z,35.00
2017-06-30T12:32:34.393Z,36.60
2017-06-30T12:35:01.967Z,36.50
2017-06-30T12:37:29.535Z,35.40
2017-06-30T12:39:57.112Z,36.40
2017-06-30T12:42:25.764Z,38.60
2017-06-30T12:44:53.390Z,38.50
2017-06-30T12:47:20.978Z,38.40
2017-06-30T12:49:48.584Z,37.80
2017-06-30T12:52:16.183Z,37.10
2017-06-30T12:54:43.771Z,37.00
2017-06-30T12:57:11.358Z,37.20
2017-06-30T12:59:39.202Z,36.10
2017-06-30T13:02:06.760Z,36.50
2017-06-30T13:04:34.345Z,36.60
2017-06-30T13:07:01.913Z,38.10
2017-06-30T13:09:29.509Z,36.30
2017-06-30T13:14:35.493Z,36.30
2017-06-30T13:17:03.360Z,36.20
2017-06-30T13:19:30.965Z,34.20
2017-06-30T13:21:58.559Z,34.60
2017-06-30T13:24:26.172Z,34.60
2017-06-30T13:26:54.539Z,34.20
2017-06-30T13:29:22.881Z,33.50
2017-06-30T13:31:50.448Z,33.50
2017-06-30T13:34:18.291Z,34.20
2017-06-30T13:36:45.859Z,33.60
2017-06-30T13:39:13.425Z,33.90
2017-06-30T13:41:41.012Z,32.90
2017-06-30T13:44:08.580Z,33.40
2017-06-30T13:46:36.918Z,33.60
2017-06-30T13:49:04.481Z,33.50
2017-06-30T13:51:32.063Z,32.40
2017-06-30T13:53:59.678Z,32.20
2017-06-30T13:56:27.254Z,31.50
2017-06-30T13:58:54.841Z,32.00
2017-06-30T14:01:22.421Z,32.20
2017-06-30T14:03:51.036Z,31.50
2017-06-30T14:06:18.603Z,31.50
2017-06-30T14:08:46.171Z,31.40
2017-06-30T14:11:13.736Z,31.90
2017-06-30T14:13:41.337Z,31.60
2017-06-30T14:16:09.670Z,32.10
2017-06-30T14:18:37.225Z,32.10
2017-06-30T14:21:05.104Z,30.30
2017-06-30T14:23:32.654Z,30.80
2017-06-30T14:26:00.234Z,31.40
2017-06-30T14:28:27.809Z,32.50
2017-06-30T14:30:56.121Z,31.50
2017-06-30T14:33:23.785Z,31.50
2017-06-30T14:35:51.334Z,32.10
2017-06-30T14:38:19.326Z,31.30
2017-06-30T14:40:46.894Z,30.70
2017-06-30T14:43:14.481Z,30.20
2017-06-30T14:45:42.860Z,31.40
2017-06-30T14:48:11.180Z,32.40
2017-06-30T14:50:38.746Z,32.40
2017-06-30T14:53:06.307Z,30.70
2017-06-30T14:55:34.182Z,31.00
2017-06-30T14:58:01.762Z,31.30
2017-06-30T15:00:29.333Z,32.10
2017-06-30T15:02:56.907Z,32.70
2017-06-30T15:05:24.457Z,32.30
2017-06-30T15:07:53.102Z,31.30
2017-06-30T15:10:20.683Z,31.80
2017-06-30T15:12:48.270Z,31.60
2017-06-30T15:15:16.616Z,32.70
2017-06-30T15:17:44.211Z,32.70
2017-06-30T15:20:11.801Z,32.50
2017-06-30T15:22:39.382Z,32.90
2017-06-30T15:25:07.236Z,33.70
2017-06-30T15:27:34.797Z,34.30
2017-06-30T15:30:02.350Z,34.80
2017-06-30T15:32:29.926Z,35.00
2017-06-30T15:34:57.484Z,34.90
2017-06-30T15:37:25.082Z,34.90
2017-06-30T15:39:52.668Z,34.70
2017-06-30T15:42:20.559Z,34.70
2017-06-30T15:44:48.139Z,35.40
2017-06-30T15:47:15.720Z,35.50
2017-06-30T15:49:44.064Z,36.60
2017-06-30T15:52:11.641Z,36.50
2017-06-30T15:54:40.003Z,36.10
2017-06-30T15:57:07.565Z,35.70
2017-06-30T15:59:35.445Z,36.20
2017-06-30T16:02:02.999Z,36.50
2017-06-30T16:04:30.571Z,35.60
2017-06-30T16:06:58.911Z,36.20
2017-06-30T16:09:26.485Z,36.10
2017-06-30T16:11:54.056Z,37.10
2017-06-30T16:14:21.608Z,35.90
2017-06-30T16:16:49.561Z,36.10
2017-06-30T16:19:17.152Z,36.40
2017-06-30T16:21:45.477Z,37.60
2017-06-30T16:24:13.066Z,37.50
2017-06-30T16:26:40.637Z,37.90
2017-06-30T16:29:08.206Z,38.40
2017-06-30T16:31:36.520Z,38.50
2017-06-30T16:34:04.457Z,38.50
2017-06-30T16:36:32.051Z,38.50
2017-06-30T16:38:59.628Z,38.30
2017-06-30T16:41:27.204Z,38.70
2017-06-30T16:43:54.794Z,39.20
2017-06-30T16:46:22.365Z,39.50
2017-06-30T16:48:49.932Z,40.00
2017-06-30T16:51:17.824Z,40.10
2017-06-30T16:53:45.388Z,40.20
2017-06-30T16:56:12.964Z,40.50
2017-06-30T16:58:40.521Z,41.90
2017-06-30T17:01:08.087Z,43.10
2017-06-30T17:03:35.818Z,44.10
2017-06-30T17:06:03.371Z,43.80
2017-06-30T17:08:31.240Z,43.70
2017-06-30T17:10:58.817Z,43.60
2017-06-30T17:13:26.403Z,44.30
2017-06-30T17:15:54.781Z,44.90
2017-06-30T17:18:23.126Z,44.20
2017-06-30T17:20:50.766Z,44.10
2017-06-30T17:23:18.352Z,44.10
2017-06-30T17:25:46.201Z,44.80
2017-06-30T17:28:13.750Z,44.60
2017-06-30T17:30:41.308Z,44.30
2017-06-30T17:33:08.898Z,44.00
2017-06-30T17:35:36.454Z,43.90
2017-06-30T17:38:04.291Z,44.30
2017-06-30T17:40:31.859Z,44.20
2017-06-30T17:42:59.498Z,44.60
2017-06-30T17:45:27.079Z,44.70
2017-06-30T17:47:54.663Z,44.70
2017-06-30T17:50:22.615Z,44.80
2017-06-30T17:52:50.199Z,45.00
2017-06-30T17:55:17.757Z,45.70
2017-06-30T17:57:45.359Z,45.70
2017-06-30T18:00:12.910Z,45.60
2017-06-30T18:02:40.509Z,45.80
2017-06-30T18:05:08.470Z,46.10
2017-06-30T18:07:36.357Z,46.30
2017-06-30T18:10:03.927Z,46.60
2017-06-30T18:12:31.487Z,46.70
2017-06-30T18:14:59.871Z,46.20
2017-06-30T18:17:28.199Z,46.70
2017-06-30T18:19:55.792Z,46.60
2017-06-30T18:22:23.354Z,46.90
2017-06-30T18:24:51.304Z,47.60
2017-06-30T18:27:18.876Z,47.30
2017-06-30T18:29:46.451Z,47.50
2017-06-30T18:32:14.036Z,47.60
2017-06-30T18:34:41.610Z,48.20
2017-06-30T18:37:09.522Z,48.20
2017-06-30T18:39:37.109Z,48.30
2017-06-30T18:42:05.499Z,48.80
2017-06-30T18:44:33.095Z,48.80
2017-06-30T18:47:00.673Z,49.20
2017-06-30T18:49:28.279Z,49.70
2017-06-30T18:51:55.873Z,50.00
2017-06-30T18:54:23.738Z,50.30
2017-06-30T18:56:51.297Z,50.50
2017-06-30T18:59:18.874Z,51.00
2017-06-30T19:01:46.471Z,51.40
2017-06-30T19:04:14.037Z,51.90
2017-06-30T19:06:41.611Z,52.40
2017-06-30T19:09:09.173Z,52.80
2017-06-30T19:11:36.736Z,53.20
2017-06-30T19:14:04.332Z,53.60
2017-06-30T19:16:31.946Z,53.80
2017-06-30T19:18:59.562Z,54.20
2017-06-30T19:21:27.930Z,55.10
2017-06-30T19:23:55.500Z,54.50
2017-06-30T19:26:23.866Z,53.80
2017-06-30T19:28:51.445Z,53.80
2017-06-30T19:31:20.088Z,53.60
2017-06-30T19:33:47.661Z,53.60
2017-06-30T19:36:15.249Z,53.80
2017-06-30T19:38:43.583Z,54.20
2017-06-30T19:41:11.152Z,54.20
2017-06-30T19:43:38.742Z,54.70
2017-06-30T19:46:06.318Z,54.80
2017-06-30T19:48:34.229Z,55.10
2017-06-30T19:51:01.827Z,55.20
2017-06-30T19:53:30.180Z,55.70
2017-06-30T19:55:57.765Z,55.70
2017-06-30T19:58:26.100Z,55.80
2017-06-30T20:00:53.685Z,55.80
2017-06-30T20:03:21.271Z,56.00
2017-06-30T20:05:49.186Z,56.10
2017-06-30T20:08:16.766Z,56.10
2017-06-30T20:10:44.326Z,56.10
2017-06-30T20:13:11.926Z,56.50
2017-06-30T20:15:39.550Z,56.60
2017-06-30T20:18:07.129Z,56.50
2017-06-30T20:20:34.732Z,56.70
2017-06-30T20:23:02.566Z,56.90
2017-06-30T20:25:30.135Z,57.10
2017-06-30T20:27:57.717Z,57.10
2017-06-30T20:30:25.289Z,57.10
2017-06-30T20:32:52.876Z,57.30
2017-06-30T20:35:21.233Z,57.70
2017-06-30T20:37:48.791Z,58.20
2017-06-30T20:40:16.701Z,57.80
2017-06-30T20:42:44.277Z,57.80
2017-06-30T20:45:11.834Z,58.10
2017-06-30T20:47:39.413Z,58.50
2017-06-30T20:50:06.986Z,58.60
2017-06-30T20:52:34.569Z,58.90
2017-06-30T20:55:02.132Z,59.00
2017-06-30T20:57:30.744Z,56.50
2017-06-30T20:59:58.328Z,56.50
2017-06-30T21:02:25.899Z,53.30
2017-06-30T21:04:53.480Z,54.20
2017-06-30T21:07:21.054Z,54.40
2017-06-30T21:09:49.696Z,54.40
2017-06-30T21:12:17.291Z,54.40
2017-06-30T21:14:45.610Z,54.50
2017-06-30T21:17:13.290Z,54.40
2017-06-30T21:19:40.848Z,54.30
2017-06-30T21:22:08.705Z,54.60
2017-06-30T21:24:36.275Z,55.30
2017-06-30T21:27:03.853Z,54.70
2017-06-30T21:29:31.455Z,54.90
2017-06-30T21:31:59.011Z,54.80
2017-06-30T21:34:26.599Z,54.70
2017-06-30T21:36:54.160Z,55.10
2017-06-30T21:39:22.050Z,55.90
2017-06-30T21:41:49.630Z,55.30
2017-06-30T21:44:17.241Z,55.20
2017-06-30T21:46:44.826Z,55.30
2017-06-30T21:49:12.389Z,55.70
2017-06-30T21:51:39.982Z,56.40
2017-06-30T21:54:08.303Z,56.50
2017-06-30T21:56:36.149Z,56.50
2017-06-30T21:59:03.718Z,56.90
2017-06-30T22:01:31.292Z,56.70
2017-06-30T22:03:58.874Z,57.00
2017-06-30T22:06:26.429Z,56.60
2017-06-30T22:08:54.050Z,56.20
2017-06-30T22:11:21.606Z,55.90
2017-06-30T22:13:49.499Z,56.90
2017-06-30T22:16:17.071Z,56.20
2017-06-30T22:18:44.657Z,56.00
2017-06-30T22:21:13.007Z,55.90
2017-06-30T22:23:40.630Z,55.90
2017-06-30T22:26:08.515Z,55.70
2017-06-30T22:28:36.090Z,55.80
2017-06-30T22:31:03.677Z,56.60
2017-06-30T22:33:32.033Z,57.00
2017-06-30T22:35:59.617Z,57.00
2017-06-30T22:38:28.243Z,58.00
2017-06-30T22:40:55.825Z,57.90
2017-06-30T22:43:23.408Z,58.10
2017-06-30T22:45:51.757Z,58.60
2017-06-30T22:48:19.318Z,58.50
2017-06-30T22:50:47.166Z,58.30
2017-06-30T22:53:14.730Z,58.30
2017-06-30T22:55:42.305Z,58.40
2017-06-30T22:58:09.910Z,58.40
2017-06-30T23:00:37.480Z,58.60
2017-06-30T23:03:05.406Z,59.10
2017-06-30T23:05:33.760Z,59.60
2017-06-30T23:08:01.325Z,59.60
2017-06-30T23:10:28.944Z,59.50
2017-06-30T23:12:56.494Z,59.70
2017-06-30T23:15:24.387Z,60.20
2017-06-30T23:17:51.966Z,59.70
2017-06-30T23:20:19.551Z,60.00
2017-06-30T23:22:47.884Z,59.90
2017-06-30T23:25:16.058Z,59.80
2017-06-30T23:27:43.925Z,58.80
2017-06-30T23:30:11.480Z,58.30
2017-06-30T23:32:39.047Z,58.30
2017-06-30T23:35:06.627Z,58.30
2017-06-30T23:37:34.196Z,58.10
2017-06-30T23:40:02.821Z,58.30
2017-06-30T23:42:30.388Z,58.20
2017-06-30T23:44:57.961Z,58.50
2017-06-30T23:47:25.537Z,58.60
2017-06-30T23:49:53.103Z,59.00
2017-06-30T23:52:20.954Z,59.40
2017-06-30T23:54:49.274Z,66.20
2017-06-30T23:57:17.644Z,69.70
2017-06-30T23:59:45.986Z,71.30
